Time;durP1;ratioP1;P1;durP2;ratioP2;P2;SDS_P1;SDS_P2;PMS_P1;PMS_P2;Temp;Humidity;BMP_temperature;BMP_pressure;BME280_temperature;BME280_humidity;BME280_pressure;Samples;Min_cycle;Max_cycle;Signal;HPM_P1;HPM_P2
2023/05/09 00:00:30;;;;;;;1.02;1.02;;;;;;;13.00;99.48;97327.59;5024857;28;20061;-69
2023/05/09 00:02:57;;;;;;;1.10;1.10;;;;;;;12.98;98.92;97329.91;5025618;28;20065;-69
2023/05/09 00:05:24;;;;;;;1.10;1.10;;;;;;;13.17;98.58;97315.03;5025193;28;20433;-69
2023/05/09 00:07:51;;;;;;;1.17;1.17;;;;;;;12.76;98.14;97297.47;5015495;28;20045;-69
2023/05/09 00:10:17;;;;;;;1.00;1.00;;;;;;;12.94;99.49;97317.13;5005568;28;20054;-69
2023/05/09 00:12:44;;;;;;;1.00;1.00;;;;;;;12.33;100.00;97298.06;5005087;28;20579;-69
2023/05/09 00:15:11;;;;;;;1.00;1.00;;;;;;;11.87;100.00;97268.84;5005333;28;20085;-68
2023/05/09 00:17:38;;;;;;;1.00;1.00;;;;;;;12.45;100.00;97319.25;5005325;28;20042;-69
2023/05/09 00:20:11;;;;;;;1.08;1.08;;;;;;;11.89;100.00;97231.19;5005258;28;20056;-69
2023/05/09 00:22:41;;;;;;;1.00;1.00;;;;;;;11.67;100.00;97165.44;5005303;28;20049;-69
2023/05/09 00:25:09;;;;;;;1.10;1.10;;;;;;;12.54;100.00;97315.03;5003831;28;20129;-68
2023/05/09 00:27:36;;;;;;;1.00;1.00;;;;;;;12.27;100.00;97305.13;5005013;28;20054;-69
2023/05/09 00:30:04;;;;;;;0.93;0.93;;;;;;;11.97;100.00;97312.59;5004898;28;20054;-67
2023/05/09 00:32:32;;;;;;;0.90;0.90;;;;;;;11.65;100.00;97272.44;5004936;28;20089;-68
2023/05/09 00:34:59;;;;;;;0.90;0.90;;;;;;;11.54;100.00;97293.63;5004851;28;20428;-68
2023/05/09 00:37:25;;;;;;;0.90;0.90;;;;;;;11.70;100.00;97259.03;5004793;28;20049;-67
2023/05/09 00:39:52;;;;;;;1.00;1.00;;;;;;;12.27;100.00;97321.78;5004927;28;20053;-67
2023/05/09 00:42:19;;;;;;;0.90;0.90;;;;;;;11.87;100.00;97235.53;5004895;28;20092;-68
2023/05/09 00:44:45;;;;;;;0.90;0.90;;;;;;;11.83;100.00;97301.25;5001687;28;20421;-68
2023/05/09 00:47:12;;;;;;;0.90;0.90;;;;;;;11.43;100.00;97281.56;5023007;28;20524;-67
2023/05/09 00:49:39;;;;;;;0.90;0.90;;;;;;;10.47;100.00;97140.44;5024686;28;20050;-67
2023/05/09 00:52:05;;;;;;;0.80;0.80;;;;;;;11.65;100.00;97322.38;5023632;28;20053;-67
2023/05/09 00:54:32;;;;;;;1.00;1.00;;;;;;;11.81;100.00;97325.81;5024360;28;20123;-67
2023/05/09 00:56:59;;;;;;;0.90;0.90;;;;;;;11.65;100.00;97278.78;5024778;28;20562;-67
2023/05/09 00:59:26;;;;;;;0.90;0.90;;;;;;;11.90;100.00;97329.94;5024073;28;20115;-66
2023/05/09 01:01:52;;;;;;;1.00;1.00;;;;;;;11.54;100.00;97260.34;5022937;28;20065;-69
2023/05/09 01:04:19;;;;;;;0.90;0.90;;;;;;;12.06;100.00;97329.81;5024284;28;20042;-68
2023/05/09 01:07:09;;;;;;;0.90;0.90;;;;;;;12.01;100.00;97325.34;5039236;28;20475;-68
2023/05/09 01:10:01;;;;;;;0.90;0.90;;;;;;;12.20;100.00;97319.69;5024036;28;20093;-68
2023/05/09 01:12:46;;;;;;;1.00;1.00;;;;;;;12.35;100.00;97333.78;5022731;28;20069;-67
2023/05/09 01:15:21;;;;;;;1.00;1.00;;;;;;;12.49;100.00;97329.25;5023989;28;20064;-68
2023/05/09 01:18:05;;;;;;;1.00;1.00;;;;;;;11.65;100.00;97233.59;5023839;28;20100;-69
2023/05/09 01:20:38;;;;;;;0.90;0.90;;;;;;;12.38;100.00;97328.28;5023906;28;20558;-69
2023/05/09 01:23:07;;;;;;;0.90;0.90;;;;;;;12.56;100.00;97339.66;5024342;28;20633;-69
2023/05/09 01:25:40;;;;;;;1.00;1.00;;;;;;;12.52;100.00;97328.50;5023558;28;20526;-68
2023/05/09 01:28:13;;;;;;;1.00;1.00;;;;;;;12.33;100.00;97333.38;5024131;28;20124;-69
2023/05/09 01:30:44;;;;;;;1.00;1.00;;;;;;;12.40;100.00;97323.19;5022551;28;20223;-70
2023/05/09 01:33:16;;;;;;;1.00;1.00;;;;;;;12.43;100.00;97341.06;5023990;28;20053;-68
2023/05/09 01:35:50;;;;;;;0.90;0.90;;;;;;;12.22;100.00;97258.22;5024021;28;20481;-69
2023/05/09 01:38:20;;;;;;;1.00;1.00;;;;;;;12.28;100.00;97328.97;5023989;28;20053;-68
2023/05/09 01:40:51;;;;;;;1.10;1.10;;;;;;;12.40;100.00;97320.41;5023568;28;20050;-67
2023/05/09 01:43:20;;;;;;;0.90;0.90;;;;;;;12.48;100.00;97333.22;5023875;28;20061;-69
2023/05/09 01:45:50;;;;;;;1.08;1.08;;;;;;;12.34;100.00;97338.56;5023825;28;20334;-69
2023/05/09 01:48:17;;;;;;;1.10;1.10;;;;;;;12.42;100.00;97318.06;5023621;28;20057;-69
2023/05/09 01:50:45;;;;;;;0.90;0.90;;;;;;;12.67;100.00;97335.88;5023745;28;20137;-68
2023/05/09 01:53:12;;;;;;;0.90;0.90;;;;;;;12.74;100.00;97335.94;5023707;28;20088;-68
2023/05/09 01:55:40;;;;;;;0.90;0.90;;;;;;;12.31;100.00;97306.00;5023980;28;20053;-70
2023/05/09 01:58:08;;;;;;;1.00;1.00;;;;;;;12.52;100.00;97349.94;5022573;28;20052;-68
2023/05/09 02:00:35;;;;;;;0.90;0.90;;;;;;;12.52;100.00;97334.06;5023147;28;20061;-69
2023/05/09 02:03:03;;;;;;;0.90;0.90;;;;;;;12.15;100.00;97336.69;5024057;28;20088;-69
2023/05/09 02:05:31;;;;;;;1.02;1.02;;;;;;;11.98;100.00;97334.44;5021817;28;20448;-69
2023/05/09 02:07:58;;;;;;;1.00;1.00;;;;;;;11.99;100.00;97310.25;5022571;28;20057;-69
2023/05/09 02:10:28;;;;;;;1.00;1.00;;;;;;;12.23;100.00;97320.94;5023542;28;20195;-69
2023/05/09 02:12:55;;;;;;;1.00;1.00;;;;;;;11.30;100.00;97282.91;5023630;28;20065;-70
2023/05/09 02:15:23;;;;;;;0.90;0.90;;;;;;;11.07;100.00;97273.72;5021727;28;20440;-69
2023/05/09 02:17:50;;;;;;;1.10;1.10;;;;;;;11.84;100.00;97353.63;5023612;28;20557;-70
2023/05/09 02:20:17;;;;;;;0.90;0.90;;;;;;;11.79;100.00;97339.28;5025934;28;20057;-70
2023/05/09 02:22:44;;;;;;;0.90;0.90;;;;;;;11.92;100.00;97347.03;5025797;28;20198;-69
2023/05/09 02:25:15;;;;;;;0.90;0.90;;;;;;;11.50;100.00;97337.13;5026677;28;20555;-68
2023/05/09 02:27:44;;;;;;;0.90;0.90;;;;;;;11.13;100.00;97284.16;5027087;28;20068;-69
2023/05/09 02:30:19;;;;;;;0.90;0.90;;;;;;;11.45;100.00;97337.44;5027023;28;20132;-69
2023/05/09 02:32:49;;;;;;;0.80;0.80;;;;;;;11.46;100.00;97342.63;5025861;28;20064;-70
2023/05/09 02:35:17;;;;;;;0.80;0.80;;;;;;;11.16;100.00;97333.31;5026644;28;20436;-69
2023/05/09 02:37:45;;;;;;;0.90;0.90;;;;;;;11.30;100.00;97349.44;5027019;28;20508;-69
2023/05/09 02:40:13;;;;;;;0.90;0.90;;;;;;;11.39;100.00;97352.78;5026519;28;20428;-69
2023/05/09 02:42:40;;;;;;;0.90;0.90;;;;;;;11.39;100.00;97352.78;5025750;28;20107;-70
2023/05/09 02:45:09;;;;;;;0.90;0.90;;;;;;;10.91;100.00;97300.78;5023878;28;20063;-70
2023/05/09 02:47:36;;;;;;;0.90;0.90;;;;;;;10.73;100.00;97276.25;5024229;28;20069;-70
2023/05/09 02:50:04;;;;;;;0.90;0.90;;;;;;;11.46;100.00;97364.03;5025260;28;20559;-70
2023/05/09 02:52:31;;;;;;;0.90;0.90;;;;;;;11.30;100.00;97288.44;5025442;28;20475;-69
2023/05/09 02:54:57;;;;;;;0.90;0.90;;;;;;;11.71;100.00;97343.09;5025230;28;20092;-70
2023/05/09 02:57:24;;;;;;;0.90;0.90;;;;;;;11.69;100.00;97362.09;5026531;28;20049;-69
2023/05/09 02:59:51;;;;;;;0.90;0.90;;;;;;;11.45;100.00;97318.00;5024828;28;20103;-71
2023/05/09 03:02:17;;;;;;;0.90;0.90;;;;;;;12.08;100.00;97363.53;5025262;28;20087;-68
2023/05/09 03:04:44;;;;;;;1.00;1.00;;;;;;;11.39;100.00;97241.84;5026267;28;20456;-68
2023/05/09 03:07:11;;;;;;;1.00;1.00;;;;;;;12.20;100.00;97366.13;5026419;28;20053;-71
2023/05/09 03:09:38;;;;;;;0.90;0.90;;;;;;;12.28;100.00;97367.84;5026583;28;20057;-69
2023/05/09 03:12:06;;;;;;;1.00;1.00;;;;;;;11.82;100.00;97327.44;5026069;28;20057;-71
2023/05/09 03:14:33;;;;;;;0.90;0.90;;;;;;;11.79;100.00;97328.19;5025012;28;20489;-71
2023/05/09 03:17:00;;;;;;;0.90;0.90;;;;;;;11.99;100.00;97376.88;5026046;28;20076;-70
2023/05/09 03:19:26;;;;;;;1.10;1.10;;;;;;;11.17;100.00;97273.13;5024837;28;20060;-70
2023/05/09 03:21:53;;;;;;;1.00;1.00;;;;;;;10.98;100.00;97256.53;5024365;28;20487;-71
2023/05/09 03:24:20;;;;;;;0.93;0.93;;;;;;;11.59;100.00;97385.66;5026741;28;20107;-70
2023/05/09 03:26:47;;;;;;;1.00;1.00;;;;;;;11.69;100.00;97375.97;5024549;28;20432;-71
2023/05/09 03:29:13;;;;;;;0.90;0.90;;;;;;;12.07;100.00;97400.81;5024359;28;20108;-69
2023/05/09 03:31:40;;;;;;;0.90;0.90;;;;;;;12.23;100.00;97401.50;5023536;28;20057;-70
2023/05/09 03:34:11;;;;;;;1.00;1.00;;;;;;;11.91;100.00;97408.47;5024241;28;20049;-69
2023/05/09 03:36:38;;;;;;;0.90;0.90;;;;;;;11.96;100.00;97388.72;5024404;28;20058;-70
2023/05/09 03:39:05;;;;;;;1.00;1.00;;;;;;;11.98;100.00;97348.31;5024064;28;20168;-69
2023/05/09 03:41:31;;;;;;;0.90;0.90;;;;;;;12.27;100.00;97405.13;5025773;28;20103;-70
2023/05/09 03:43:58;;;;;;;0.90;0.90;;;;;;;12.08;100.00;97407.97;5025612;28;20057;-70
2023/05/09 03:46:25;;;;;;;1.00;1.00;;;;;;;12.13;100.00;97404.88;5025640;28;20530;-70
2023/05/09 03:48:51;;;;;;;0.90;0.90;;;;;;;11.12;100.00;97320.56;5023841;28;20534;-71
2023/05/09 03:51:19;;;;;;;0.90;0.90;;;;;;;11.54;100.00;97415.69;5025281;28;20466;-69
2023/05/09 03:53:46;;;;;;;1.00;1.00;;;;;;;11.91;100.00;97419.56;5025648;28;20057;-70
2023/05/09 03:56:13;;;;;;;0.90;0.90;;;;;;;12.24;100.00;97419.75;5024053;28;20557;-69
2023/05/09 03:58:40;;;;;;;0.90;0.90;;;;;;;12.39;100.00;97412.44;5025331;28;20141;-69
2023/05/09 04:01:07;;;;;;;1.00;1.00;;;;;;;12.30;100.00;97379.38;5025278;28;20069;-70
2023/05/09 04:03:33;;;;;;;1.00;1.00;;;;;;;12.60;100.00;97419.13;5025634;28;20075;-70
2023/05/09 04:06:00;;;;;;;1.00;1.00;;;;;;;12.71;100.00;97425.66;5025703;28;20496;-71
2023/05/09 04:08:27;;;;;;;1.00;1.00;;;;;;;12.72;100.00;97438.38;5025401;28;20077;-72
2023/05/09 04:10:53;;;;;;;1.02;1.02;;;;;;;12.73;100.00;97428.06;5024791;28;20045;-73
2023/05/09 04:13:20;;;;;;;1.10;1.10;;;;;;;12.89;100.00;97443.41;5023989;28;20050;-72
2023/05/09 04:15:47;;;;;;;1.10;1.10;;;;;;;12.95;100.00;97435.50;5023563;28;20056;-71
2023/05/09 04:18:13;;;;;;;1.00;1.00;;;;;;;12.97;100.00;97439.53;5023897;28;20057;-71
2023/05/09 04:20:40;;;;;;;1.00;1.00;;;;;;;12.81;100.00;97408.31;5024893;28;20053;-70
2023/05/09 04:23:06;;;;;;;1.00;1.00;;;;;;;13.14;100.00;97450.13;5025262;28;20061;-70
2023/05/09 04:25:34;;;;;;;1.10;1.10;;;;;;;13.11;100.00;97438.94;5023118;28;20050;-70
2023/05/09 04:28:01;;;;;;;1.10;1.10;;;;;;;12.79;100.00;97394.00;5024640;28;20108;-71
2023/05/09 04:30:27;;;;;;;1.00;1.00;;;;;;;13.20;99.50;97443.06;5023538;28;20049;-71
2023/05/09 04:32:54;;;;;;;1.15;1.15;;;;;;;13.30;98.83;97447.97;5023191;28;20053;-72
2023/05/09 04:35:21;;;;;;;1.10;1.10;;;;;;;13.35;96.95;97450.41;5024545;28;20508;-70
2023/05/09 04:37:48;;;;;;;1.00;1.00;;;;;;;13.36;95.79;97440.06;5024581;28;20053;-71
2023/05/09 04:40:15;;;;;;;1.10;1.10;;;;;;;13.31;96.72;97445.97;5024602;28;20057;-70
2023/05/09 04:42:42;;;;;;;1.10;1.10;;;;;;;13.03;96.81;97449.19;5024138;28;20053;-70
2023/05/09 04:45:10;;;;;;;1.10;1.10;;;;;;;13.10;99.26;97454.84;5024539;28;20050;-71
2023/05/09 04:47:37;;;;;;;1.13;1.13;;;;;;;13.15;98.81;97456.50;5024426;28;20057;-71
2023/05/09 04:50:04;;;;;;;1.00;1.00;;;;;;;13.17;98.30;97449.38;5024488;28;20100;-71
2023/05/09 04:52:31;;;;;;;1.10;1.10;;;;;;;13.09;97.43;97436.56;5023772;28;20145;-72
2023/05/09 04:54:58;;;;;;;1.02;1.02;;;;;;;13.17;98.10;97449.38;5022076;28;20111;-71
2023/05/09 04:57:24;;;;;;;1.00;1.00;;;;;;;12.96;97.29;97448.25;5024070;28;20566;-71
2023/05/09 04:59:51;;;;;;;1.10;1.10;;;;;;;12.53;100.00;97446.81;5023810;28;20104;-72
2023/05/09 05:02:19;;;;;;;1.02;1.02;;;;;;;12.07;100.00;97404.41;5022540;28;20045;-70
2023/05/09 05:04:46;;;;;;;0.90;0.90;;;;;;;11.77;100.00;97463.72;5024238;28;20061;-71
2023/05/09 05:07:13;;;;;;;1.00;1.00;;;;;;;11.67;100.00;97456.00;5023701;28;20045;-70
2023/05/09 05:09:40;;;;;;;0.90;0.90;;;;;;;11.81;100.00;97456.25;5024154;28;20045;-72
2023/05/09 05:12:07;;;;;;;1.00;1.00;;;;;;;11.83;100.00;97456.69;5023954;28;20429;-72
2023/05/09 05:14:35;;;;;;;0.90;0.90;;;;;;;11.30;100.00;97449.28;5022775;28;20053;-73
2023/05/09 05:17:02;;;;;;;0.88;0.88;;;;;;;11.72;100.00;97462.06;5024232;28;20487;-72
2023/05/09 05:19:29;;;;;;;1.00;1.00;;;;;;;11.64;100.00;97445.63;5024454;28;20063;-72
2023/05/09 05:21:55;;;;;;;0.90;0.90;;;;;;;11.74;100.00;97476.38;5024485;28;20056;-74
2023/05/09 05:24:22;;;;;;;0.88;0.88;;;;;;;11.61;100.00;97465.75;5024459;28;20708;-71
2023/05/09 05:26:49;;;;;;;0.80;0.80;;;;;;;11.33;100.00;97427.19;5022705;28;20057;-72
2023/05/09 05:29:16;;;;;;;1.00;1.00;;;;;;;11.51;100.00;97455.25;5023941;28;20049;-69
2023/05/09 05:31:43;;;;;;;0.90;0.90;;;;;;;11.29;100.00;97475.41;5022112;28;20188;-71
2023/05/09 05:34:09;;;;;;;1.00;1.00;;;;;;;11.43;100.00;97425.78;5022638;28;20156;-72
2023/05/09 05:36:36;;;;;;;0.90;0.90;;;;;;;9.43;100.00;97112.16;5022180;28;20064;-70
2023/05/09 05:39:03;;;;;;;0.80;0.80;;;;;;;11.03;100.00;97422.56;5021381;28;20108;-62
2023/05/09 05:41:29;;;;;;;0.90;0.90;;;;;;;10.94;100.00;97408.13;5023376;28;20095;-67
2023/05/09 05:43:56;;;;;;;0.90;0.90;;;;;;;9.56;100.00;97232.53;5023520;28;20127;-70
2023/05/09 05:46:23;;;;;;;0.88;0.88;;;;;;;11.08;100.00;97474.97;5023050;28;20115;-69
2023/05/09 05:48:50;;;;;;;0.80;0.80;;;;;;;11.36;100.00;97476.38;5018520;28;20707;-68
2023/05/09 05:51:16;;;;;;;1.00;1.00;;;;;;;11.50;100.00;97481.38;5022017;28;20199;-66
2023/05/09 05:53:43;;;;;;;0.80;0.80;;;;;;;9.40;100.00;97162.63;5021763;28;20469;-69
2023/05/09 05:56:11;;;;;;;0.90;0.90;;;;;;;10.04;100.00;97182.22;5025030;28;20056;-63
2023/05/09 05:58:38;;;;;;;1.00;1.00;;;;;;;11.84;100.00;97491.59;5025586;28;20049;-66
2023/05/09 06:01:04;;;;;;;0.90;0.90;;;;;;;12.02;100.00;97481.66;5025953;28;20107;-71
2023/05/09 06:03:31;;;;;;;1.00;1.00;;;;;;;12.01;100.00;97480.06;5021654;28;20050;-67
2023/05/09 06:05:58;;;;;;;0.90;0.90;;;;;;;12.09;100.00;97481.78;5006322;28;20084;-68
2023/05/09 06:08:25;;;;;;;0.90;0.90;;;;;;;11.49;100.00;97371.59;5016704;28;20163;-62
2023/05/09 06:10:52;;;;;;;1.00;1.00;;;;;;;12.48;100.00;97482.44;5025762;28;20085;-65
2023/05/09 06:13:18;;;;;;;1.00;1.00;;;;;;;12.29;100.00;97418.63;5022155;28;20507;-61
2023/05/09 06:15:45;;;;;;;1.05;1.05;;;;;;;12.86;100.00;97483.06;5015893;28;20495;-65
2023/05/09 06:18:12;;;;;;;1.00;1.00;;;;;;;12.29;98.35;97440.84;5023899;28;20053;-60
2023/05/09 06:20:39;;;;;;;1.00;1.00;;;;;;;11.62;100.00;97462.63;5024764;28;20107;-66
2023/05/09 06:23:05;;;;;;;1.00;1.00;;;;;;;11.78;100.00;97454.22;5025926;28;20049;-69
2023/05/09 06:25:32;;;;;;;0.90;0.90;;;;;;;11.55;100.00;97411.75;5024585;28;20507;-61
2023/05/09 06:27:59;;;;;;;1.00;1.00;;;;;;;12.22;100.00;97474.84;5025662;28;20128;-66
2023/05/09 06:30:25;;;;;;;0.90;0.90;;;;;;;11.15;100.00;97414.09;5026301;28;20041;-60
2023/05/09 06:32:53;;;;;;;0.88;0.88;;;;;;;11.52;100.00;97468.75;5025563;28;20041;-64
2023/05/09 06:35:21;;;;;;;1.00;1.00;;;;;;;11.70;100.00;97481.03;5023451;28;20100;-61
2023/05/09 06:37:48;;;;;;;0.90;0.90;;;;;;;11.72;100.00;97441.81;5023759;28;20057;-64
2023/05/09 06:40:15;;;;;;;0.90;0.90;;;;;;;12.11;100.00;97468.31;5024439;28;20099;-60
2023/05/09 06:42:43;;;;;;;0.90;0.90;;;;;;;10.81;100.00;97354.00;5021325;28;20543;-63
2023/05/09 06:45:10;;;;;;;0.90;0.90;;;;;;;11.59;100.00;97457.81;5022827;28;20057;-59
2023/05/09 06:47:37;;;;;;;1.00;1.00;;;;;;;11.86;100.00;97476.22;5025301;28;20068;-62
2023/05/09 06:50:04;;;;;;;1.00;1.00;;;;;;;11.56;100.00;97457.72;5024357;28;20176;-63
2023/05/09 06:52:30;;;;;;;1.00;1.00;;;;;;;11.96;100.00;97489.50;5023012;28;20045;-63
2023/05/09 06:54:57;;;;;;;0.95;0.95;;;;;;;11.67;100.00;97436.56;5020416;28;20053;-62
2023/05/09 06:57:24;;;;;;;0.93;0.93;;;;;;;12.31;100.00;97461.53;5019608;28;20128;-61
2023/05/09 06:59:50;;;;;;;0.95;0.95;;;;;;;12.53;100.00;97474.63;5022948;28;20053;-61
2023/05/09 07:02:17;;;;;;;1.02;1.02;;;;;;;12.85;100.00;97475.88;5024168;28;20085;-57
2023/05/09 07:04:44;;;;;;;0.93;0.93;;;;;;;12.13;100.00;97424.31;5025367;28;20099;-60
2023/05/09 07:07:10;;;;;;;0.93;0.93;;;;;;;12.78;99.38;97481.38;5024746;28;20087;-66
2023/05/09 07:09:37;;;;;;;0.90;0.90;;;;;;;12.02;100.00;97476.09;5019838;28;20604;-59
2023/05/09 07:12:04;;;;;;;1.00;1.00;;;;;;;11.66;100.00;97440.53;5006315;28;20064;-59
2023/05/09 07:14:31;;;;;;;0.88;0.88;;;;;;;11.66;100.00;97479.38;5018734;28;20123;-63
2023/05/09 07:16:57;;;;;;;0.90;0.90;;;;;;;11.23;100.00;97314.06;5022778;28;20054;-59
2023/05/09 07:19:44;;;;;;;1.10;1.10;;;;;;;12.09;100.00;97481.78;5023213;28;20049;-66
2023/05/09 07:22:12;;;;;;;1.00;1.00;;;;;;;10.79;100.00;97228.88;5023874;28;20061;-63
2023/05/09 07:24:39;;;;;;;1.00;1.00;;;;;;;12.19;100.00;97376.44;5022463;28;20528;-68
2023/05/09 07:27:05;;;;;;;1.00;1.00;;;;;;;13.10;99.61;97481.88;5022502;28;20049;-61
2023/05/09 07:29:32;;;;;;;0.98;0.98;;;;;;;13.23;97.12;97492.38;5024494;28;20053;-61
2023/05/09 07:31:59;;;;;;;1.08;1.08;;;;;;;12.50;96.91;97483.69;5026004;28;20057;-65
2023/05/09 07:34:26;;;;;;;1.00;1.00;;;;;;;12.11;100.00;97451.66;5025380;28;20045;-61
2023/05/09 07:36:52;;;;;;;1.00;1.00;;;;;;;12.16;100.00;97370.81;5023084;28;20570;-62
2023/05/09 07:39:19;;;;;;;1.10;1.10;;;;;;;13.01;97.44;97471.00;5019559;28;20426;-69
2023/05/09 07:41:46;;;;;;;1.20;1.20;;;;;;;13.21;96.14;97494.75;5023378;28;20052;-71
2023/05/09 07:44:14;;;;;;;1.10;1.10;;;;;;;11.36;96.45;97187.13;5025085;28;20089;-71
2023/05/09 07:46:41;;;;;;;1.20;1.20;;;;;;;13.34;96.26;97498.88;5022863;28;20061;-69
2023/05/09 07:49:08;;;;;;;1.10;1.10;;;;;;;12.91;96.60;97424.38;5021135;28;20075;-63
2023/05/09 07:51:35;;;;;;;1.10;1.10;;;;;;;13.36;95.14;97471.50;5025614;28;20049;-72
2023/05/09 07:54:02;;;;;;;1.10;1.10;;;;;;;12.15;96.45;97324.78;5025533;28;20104;-62
2023/05/09 07:56:29;;;;;;;1.10;1.10;;;;;;;13.46;96.99;97481.97;5023382;28;20107;-68
2023/05/09 07:58:55;;;;;;;1.10;1.10;;;;;;;12.56;96.71;97326.59;5025193;28;20278;-66
2023/05/09 08:01:22;;;;;;;1.10;1.10;;;;;;;12.51;94.91;97338.00;5023515;28;20089;-62
2023/05/09 08:03:49;;;;;;;1.00;1.00;;;;;;;13.25;96.22;97455.81;5024943;28;20211;-63
2023/05/09 08:06:15;;;;;;;1.20;1.20;;;;;;;13.46;95.32;97501.44;5023535;28;20421;-61
2023/05/09 08:08:42;;;;;;;1.05;1.05;;;;;;;13.19;97.15;97497.09;5022278;28;20103;-61
2023/05/09 08:11:09;;;;;;;1.00;1.00;;;;;;;12.73;100.00;97495.56;5024819;28;20049;-70
2023/05/09 08:13:35;;;;;;;1.10;1.10;;;;;;;12.45;99.78;97419.28;5024702;28;20049;-67
2023/05/09 08:16:02;;;;;;;1.00;1.00;;;;;;;12.89;99.32;97504.56;5023788;28;20049;-62
2023/05/09 08:18:29;;;;;;;1.00;1.00;;;;;;;12.80;100.00;97495.69;5022272;28;20141;-70
2023/05/09 08:20:58;;;;;;;0.98;0.98;;;;;;;12.64;100.00;97464.47;5022333;28;20057;-61
2023/05/09 08:23:25;;;;;;;1.10;1.10;;;;;;;12.41;100.00;97449.78;5023318;28;20508;-71
2023/05/09 08:25:53;;;;;;;0.90;0.90;;;;;;;12.88;100.00;97508.50;5022637;28;20072;-62
2023/05/09 08:28:22;;;;;;;1.05;1.05;;;;;;;12.22;100.00;97405.44;5024470;28;20483;-70
2023/05/09 08:30:50;;;;;;;1.00;1.00;;;;;;;12.08;100.00;97402.41;5024317;28;20111;-70
2023/05/09 08:33:17;;;;;;;0.90;0.90;;;;;;;12.04;100.00;97376.56;5021802;28;20604;-69
2023/05/09 08:35:44;;;;;;;1.00;1.00;;;;;;;13.04;100.00;97505.63;5021828;28;20443;-63
2023/05/09 08:38:11;;;;;;;1.00;1.00;;;;;;;13.00;100.00;97505.56;5024561;28;20045;-70
2023/05/09 08:40:37;;;;;;;1.00;1.00;;;;;;;12.51;100.00;97409.44;5021929;28;20053;-67
2023/05/09 08:43:06;;;;;;;1.10;1.10;;;;;;;12.22;100.00;97347.09;5021233;28;20587;-71
2023/05/09 08:45:39;;;;;;;1.00;1.00;;;;;;;13.26;100.00;97507.53;5022879;28;20128;-71
2023/05/09 08:48:06;;;;;;;1.20;1.20;;;;;;;13.08;98.20;97468.34;5022168;28;20111;-63
2023/05/09 08:50:34;;;;;;;1.00;1.00;;;;;;;13.14;100.00;97500.19;5018987;28;20049;-63
2023/05/09 08:53:01;;;;;;;1.08;1.08;;;;;;;12.96;100.00;97453.81;5022486;28;20053;-60
2023/05/09 08:55:28;;;;;;;1.00;1.00;;;;;;;13.33;99.73;97502.84;5023774;28;20128;-69
2023/05/09 08:57:56;;;;;;;1.10;1.10;;;;;;;13.18;98.32;97498.25;5022425;28;20579;-64
2023/05/09 09:00:25;;;;;;;1.15;1.15;;;;;;;13.32;100.00;97512.41;5022507;28;20053;-68
2023/05/09 09:02:52;;;;;;;1.00;1.00;;;;;;;13.39;100.00;97498.56;5022950;28;20042;-64
2023/05/09 09:05:21;;;;;;;1.10;1.10;;;;;;;12.90;98.49;97456.13;5023476;28;20160;-69
2023/05/09 09:08:07;;;;;;;1.10;1.10;;;;;;;12.91;100.00;97457.72;5023962;28;20709;-67
2023/05/09 09:10:34;;;;;;;1.10;1.10;;;;;;;13.11;100.00;97470.34;5021274;28;20561;-67
2023/05/09 09:13:03;;;;;;;1.10;1.10;;;;;;;12.53;98.98;97434.91;5022803;28;20057;-63
2023/05/09 09:15:35;;;;;;;1.10;1.10;;;;;;;12.56;99.99;97401.63;5022393;28;20049;-67
2023/05/09 09:18:08;;;;;;;1.15;1.15;;;;;;;12.84;99.07;97429.81;5020598;28;20160;-66
2023/05/09 09:20:39;;;;;;;;;;;;;;;13.36;99.46;97501.28;5014168;28;20050;-65
2023/05/09 09:23:09;;;;;;;1.00;1.00;;;;;;;12.61;99.26;97419.94;5019522;28;19971;-65
2023/05/09 09:25:36;;;;;;;1.05;1.05;;;;;;;12.89;100.00;97475.94;5023713;28;20045;-64
2023/05/09 09:28:03;;;;;;;1.10;1.10;;;;;;;13.42;97.68;97505.38;5023613;28;20108;-65
2023/05/09 09:30:30;;;;;;;1.08;1.08;;;;;;;12.89;96.05;97398.91;5024619;28;20487;-67
2023/05/09 09:33:00;;;;;;;1.10;1.10;;;;;;;13.28;95.16;97446.72;5025902;28;20045;-68
2023/05/09 09:35:26;;;;;;;1.30;1.30;;;;;;;13.63;93.23;97494.47;5027249;28;20464;-65
2023/05/09 09:37:59;;;;;;;1.15;1.15;;;;;;;13.62;93.32;97504.81;5027321;28;20142;-67
2023/05/09 09:40:26;;;;;;;1.17;1.17;;;;;;;13.76;90.71;97503.38;5027692;28;20049;-69
2023/05/09 09:42:52;;;;;;;1.00;1.00;;;;;;;12.74;89.92;97396.31;5027656;28;20057;-68
2023/05/09 09:45:19;;;;;;;1.20;1.20;;;;;;;13.59;89.99;97505.56;5026313;28;20119;-69
2023/05/09 09:47:47;;;;;;;1.00;1.00;;;;;;;13.03;90.78;97399.13;5027829;28;20143;-68
2023/05/09 09:50:18;;;;;;;1.10;1.10;;;;;;;13.72;90.95;97508.13;5026171;28;20128;-65
2023/05/09 09:52:54;;;;;;;1.00;1.00;;;;;;;13.67;89.46;97518.41;5027650;28;20144;-67
2023/05/09 09:55:23;;;;;;;1.10;1.10;;;;;;;12.75;90.00;97404.28;5028048;28;20049;-67
2023/05/09 09:57:50;;;;;;;1.30;1.30;;;;;;;13.53;91.02;97484.81;5025897;28;20053;-65
2023/05/09 10:00:23;;;;;;;1.20;1.20;;;;;;;13.76;88.67;97498.63;5027219;28;20060;-64
2023/05/09 10:02:52;;;;;;;1.20;1.20;;;;;;;13.78;89.70;97496.28;5026094;28;20053;-66
2023/05/09 10:05:25;;;;;;;1.20;1.20;;;;;;;13.99;89.10;97506.84;5027245;28;20151;-63
2023/05/09 10:07:59;;;;;;;;;;;;;;;13.94;87.20;97509.97;5027322;28;20073;-64
2023/05/09 10:10:27;;;;;;;1.10;1.10;;;;;;;13.47;87.60;97505.81;5025657;28;19925;-65
2023/05/09 10:12:59;;;;;;;1.02;1.02;;;;;;;12.63;87.36;97367.56;5026989;28;20123;-66
2023/05/09 10:15:28;;;;;;;1.20;1.20;;;;;;;13.49;87.93;97514.59;5025883;28;20053;-64
2023/05/09 10:18:09;;;;;;;1.10;1.10;;;;;;;12.94;88.22;97408.91;5026760;28;20049;-66
2023/05/09 10:20:39;;;;;;;1.20;1.20;;;;;;;13.81;89.31;97506.66;5025799;28;20085;-66
2023/05/09 10:23:07;;;;;;;1.10;1.10;;;;;;;13.55;88.17;97504.75;5025478;28;20484;-66
2023/05/09 10:26:22;;;;;;;1.10;1.10;;;;;;;13.76;88.51;97508.97;5026979;28;20119;-64
2023/05/09 10:28:53;;;;;;;1.10;1.10;;;;;;;14.04;87.23;97515.66;5024208;28;20107;-66
2023/05/09 10:31:28;;;;;;;1.20;1.20;;;;;;;14.17;85.39;97502.25;5026537;28;20156;-69
2023/05/09 10:33:55;;;;;;;1.20;1.20;;;;;;;13.88;85.99;97455.81;5026846;28;20056;-66
2023/05/09 10:36:25;;;;;;;1.20;1.20;;;;;;;13.61;86.66;97428.06;5026833;28;20166;-64
2023/05/09 10:38:55;;;;;;;1.23;1.23;;;;;;;14.41;86.93;97513.69;5026058;28;20487;-64
2023/05/09 10:41:22;;;;;;;1.30;1.30;;;;;;;13.94;87.16;97465.41;5024811;28;20060;-68
2023/05/09 10:43:49;;;;;;;1.10;1.10;;;;;;;14.16;89.06;97511.81;5023608;28;20061;-68
2023/05/09 10:46:17;;;;;;;1.17;1.17;;;;;;;13.71;86.69;97446.06;5025018;28;20505;-60
2023/05/09 10:48:44;;;;;;;1.20;1.20;;;;;;;14.01;89.18;97515.59;5025425;28;20053;-67
2023/05/09 10:51:11;;;;;;;1.10;1.10;;;;;;;13.97;91.31;97509.22;5026025;28;20056;-57
2023/05/09 10:53:44;;;;;;;1.20;1.20;;;;;;;14.02;90.65;97517.22;5026488;28;20052;-60
2023/05/09 10:56:31;;;;;;;1.20;1.20;;;;;;;13.99;90.96;97516.00;5026561;28;20057;-58
2023/05/09 10:58:59;;;;;;;1.10;1.10;;;;;;;13.97;90.73;97514.78;5008356;28;20478;-58
2023/05/09 11:01:31;;;;;;;1.30;1.30;;;;;;;14.13;90.94;97512.56;5006408;28;20604;-67
2023/05/09 11:03:59;;;;;;;1.20;1.20;;;;;;;14.34;89.61;97512.81;5006292;28;20061;-59
2023/05/09 11:06:51;;;;;;;1.30;1.30;;;;;;;14.38;86.53;97508.09;5025696;28;20049;-74
2023/05/09 11:09:41;;;;;;;1.30;1.30;;;;;;;14.27;86.73;97507.19;5023898;28;20450;-59
2023/05/09 11:12:12;;;;;;;1.00;1.00;;;;;;;13.75;86.23;97440.53;5026233;28;20049;-62
2023/05/09 11:14:45;;;;;;;1.10;1.10;;;;;;;14.00;86.43;97508.44;5022755;28;20116;-73
2023/05/09 11:17:20;;;;;;;1.23;1.23;;;;;;;14.14;90.33;97501.06;5022749;28;20103;-74
2023/05/09 11:19:47;;;;;;;1.33;1.33;;;;;;;14.28;86.69;97503.19;5024111;28;20053;-59
2023/05/09 11:22:15;;;;;;;1.13;1.13;;;;;;;13.96;86.19;97518.75;5024171;28;20049;-61
2023/05/09 11:24:47;;;;;;;1.20;1.20;;;;;;;13.73;90.10;97484.66;5020137;28;20067;-70
2023/05/09 11:27:24;;;;;;;1.10;1.10;;;;;;;13.66;88.82;97511.25;5015363;28;20060;-58
2023/05/09 11:29:53;;;;;;;1.20;1.20;;;;;;;13.11;90.43;97447.28;5024775;28;20053;-65
2023/05/09 11:32:26;;;;;;;1.10;1.10;;;;;;;13.00;91.92;97477.75;5022895;28;20617;-61
2023/05/09 11:35:09;;;;;;;1.00;1.00;;;;;;;11.33;99.83;97382.00;5024500;28;20140;-69